createdAt,value
2018-12-24T00:00:59.942Z,1002.06
2018-12-24T00:01:59.929Z,1002.08
2018-12-24T00:02:59.916Z,1002.08
2018-12-24T00:03:59.902Z,1002.10
2018-12-24T00:04:59.899Z,1002.14
2018-12-24T00:05:59.878Z,1002.13
2018-12-24T00:06:59.961Z,1002.14
2018-12-24T00:07:59.850Z,1002.08
2018-12-24T00:08:59.838Z,1002.08
2018-12-24T00:09:59.824Z,1002.11
2018-12-24T00:10:59.810Z,1002.15
2018-12-24T00:12:06.988Z,1002.14
2018-12-24T00:12:59.785Z,1002.12
2018-12-24T00:13:59.773Z,1002.17
2018-12-24T00:14:59.758Z,1002.19
2018-12-24T00:15:59.745Z,1002.18
2018-12-24T00:16:59.732Z,1002.16
2018-12-24T00:17:59.719Z,1002.21
2018-12-24T00:18:59.706Z,1002.28
2018-12-24T00:19:59.693Z,1002.27
2018-12-24T00:20:59.682Z,1002.32
2018-12-24T00:21:59.773Z,1002.35
2018-12-24T00:22:59.655Z,1002.34
2018-12-24T00:23:59.640Z,1002.38
2018-12-24T00:24:59.629Z,1002.40
2018-12-24T00:25:59.616Z,1002.44
2018-12-24T00:26:59.600Z,1002.46
2018-12-24T00:27:59.588Z,1002.53
2018-12-24T00:28:59.624Z,1002.57
2018-12-24T00:29:59.561Z,1002.57
2018-12-24T00:30:59.547Z,1002.62
2018-12-24T00:31:59.534Z,1002.68
2018-12-24T00:32:59.521Z,1002.73
2018-12-24T00:33:59.508Z,1002.71
2018-12-24T00:34:59.494Z,1002.71
2018-12-24T00:35:59.481Z,1002.77
2018-12-24T00:36:59.468Z,1002.82
2018-12-24T00:37:59.456Z,1002.91
2018-12-24T00:38:59.491Z,1002.89
2018-12-24T00:39:59.428Z,1002.90
2018-12-24T00:40:59.415Z,1002.93
2018-12-24T00:41:59.605Z,1002.94
2018-12-24T00:42:59.392Z,1002.99
2018-12-24T00:43:59.374Z,1003.01
2018-12-24T00:44:59.361Z,1003.10
2018-12-24T00:45:59.348Z,1003.14
2018-12-24T00:46:59.334Z,1003.15
2018-12-24T00:47:59.328Z,1003.16
2018-12-24T00:48:59.307Z,1003.27
2018-12-24T00:49:59.294Z,1003.31
2018-12-24T00:50:59.279Z,1003.32
2018-12-24T00:51:59.266Z,1003.36
2018-12-24T00:52:59.253Z,1003.37
2018-12-24T00:53:59.241Z,1003.39
2018-12-24T00:54:59.226Z,1003.43
2018-12-24T00:55:59.212Z,1003.48
2018-12-24T00:56:59.208Z,1003.52
2018-12-24T00:57:59.186Z,1003.54
2018-12-24T00:58:59.174Z,1003.55
2018-12-24T00:59:59.158Z,1003.52
2018-12-24T01:00:59.145Z,1003.58
2018-12-24T01:01:59.132Z,1003.58
2018-12-24T01:02:59.117Z,1003.61
2018-12-24T01:03:59.105Z,1003.63
2018-12-24T01:04:59.095Z,1003.69
2018-12-24T01:05:59.082Z,1003.72
2018-12-24T01:06:59.064Z,1003.74
2018-12-24T01:07:59.050Z,1003.74
2018-12-24T01:08:59.037Z,1003.77
2018-12-24T01:09:59.027Z,1003.81
2018-12-24T01:10:59.010Z,1003.91
2018-12-24T01:11:58.997Z,1003.94
2018-12-24T01:12:58.983Z,1003.98
2018-12-24T01:13:58.973Z,1004.02
2018-12-24T01:14:58.957Z,1004.01
2018-12-24T01:15:58.943Z,1004.04
2018-12-24T01:16:59.132Z,1004.04
2018-12-24T01:17:58.919Z,1004.13
2018-12-24T01:18:58.902Z,1004.16
2018-12-24T01:19:58.889Z,1004.14
2018-12-24T01:20:58.876Z,1004.17
2018-12-24T01:21:58.863Z,1004.20
2018-12-24T01:22:58.852Z,1004.20
2018-12-24T01:23:58.839Z,1004.22
2018-12-24T01:24:58.822Z,1004.25
2018-12-24T01:25:58.808Z,1004.25
2018-12-24T01:26:58.794Z,1004.31
2018-12-24T01:27:58.781Z,1004.33
2018-12-24T01:28:58.768Z,1004.38
2018-12-24T01:29:58.755Z,1004.41
2018-12-24T01:30:58.740Z,1004.42
2018-12-24T01:31:58.726Z,1004.40
2018-12-24T01:32:58.713Z,1004.43
2018-12-24T01:33:58.700Z,1004.48
2018-12-24T01:34:59.136Z,1004.58
2018-12-24T01:35:58.673Z,1004.54
2018-12-24T01:37:00.630Z,1004.55
2018-12-24T01:37:58.646Z,1004.54
2018-12-24T01:38:58.631Z,1004.59
2018-12-24T01:39:58.618Z,1004.57
2018-12-24T01:40:58.609Z,1004.57
2018-12-24T01:41:58.597Z,1004.57
2018-12-24T01:42:58.577Z,1004.52
2018-12-24T01:43:58.564Z,1004.60
2018-12-24T01:44:58.551Z,1004.58
2018-12-24T01:45:58.538Z,1004.54
2018-12-24T01:46:58.525Z,1004.54
2018-12-24T01:47:58.513Z,1004.64
2018-12-24T01:48:58.498Z,1004.65
2018-12-24T01:49:58.484Z,1004.63
2018-12-24T01:50:58.472Z,1004.59
2018-12-24T01:51:58.457Z,1004.63
2018-12-24T01:52:58.446Z,1004.67
2018-12-24T01:53:58.431Z,1004.67
2018-12-24T01:54:58.417Z,1004.67
2018-12-24T01:55:58.454Z,1004.74
2018-12-24T01:56:58.391Z,1004.78
2018-12-24T01:57:58.378Z,1004.79
2018-12-24T01:58:58.370Z,1004.82
2018-12-24T01:59:58.354Z,1004.88
2018-12-24T02:00:58.339Z,1004.88
2018-12-24T02:01:58.325Z,1004.92
2018-12-24T02:02:58.311Z,1004.95
2018-12-24T02:03:58.299Z,1004.96
2018-12-24T02:04:58.286Z,1004.99
2018-12-24T02:05:58.273Z,1005.05
2018-12-24T02:06:58.259Z,1005.04
2018-12-24T02:07:58.246Z,1005.07
2018-12-24T02:08:58.233Z,1005.05
2018-12-24T02:09:58.222Z,1005.13
2018-12-24T02:10:58.461Z,1005.14
2018-12-24T02:11:58.193Z,1005.17
2018-12-24T02:12:58.180Z,1005.21
2018-12-24T02:13:58.168Z,1005.20
2018-12-24T02:14:58.153Z,1005.20
2018-12-24T02:15:58.140Z,1005.18
2018-12-24T02:16:58.129Z,1005.21
2018-12-24T02:17:58.114Z,1005.24
2018-12-24T02:18:58.101Z,1005.24
2018-12-24T02:19:58.088Z,1005.21
2018-12-24T02:20:58.075Z,1005.28
2018-12-24T02:21:58.062Z,1005.27
2018-12-24T02:22:58.049Z,1005.30
2018-12-24T02:23:58.036Z,1005.35
2018-12-24T02:24:58.023Z,1005.35
2018-12-24T02:25:58.010Z,1005.34
2018-12-24T02:26:57.997Z,1005.36
2018-12-24T02:27:57.984Z,1005.33
2018-12-24T02:28:57.971Z,1005.35
2018-12-24T02:29:57.957Z,1005.32
2018-12-24T02:30:57.944Z,1005.39
2018-12-24T02:31:57.931Z,1005.39
2018-12-24T02:32:57.925Z,1005.42
2018-12-24T02:33:57.905Z,1005.44
2018-12-24T02:34:57.891Z,1005.44
2018-12-24T02:35:57.879Z,1005.46
2018-12-24T02:36:57.866Z,1005.52
2018-12-24T02:37:57.854Z,1005.54
2018-12-24T02:38:57.839Z,1005.57
2018-12-24T02:39:57.827Z,1005.57
2018-12-24T02:40:57.817Z,1005.58
2018-12-24T02:41:57.806Z,1005.66
2018-12-24T02:42:57.788Z,1005.64
2018-12-24T02:43:57.776Z,1005.63
2018-12-24T02:44:57.770Z,1005.63
2018-12-24T02:45:57.749Z,1005.64
2018-12-24T02:46:57.736Z,1005.65
2018-12-24T02:47:57.723Z,1005.65
2018-12-24T02:48:57.710Z,1005.71
2018-12-24T02:49:57.699Z,1005.72
2018-12-24T02:50:57.689Z,1005.76
2018-12-24T02:51:57.672Z,1005.80
2018-12-24T02:52:57.664Z,1005.80
2018-12-24T02:53:57.647Z,1005.82
2018-12-24T02:54:57.639Z,1005.88
2018-12-24T02:55:57.619Z,1005.90
2018-12-24T02:56:57.612Z,1005.93
2018-12-24T02:57:57.705Z,1005.93
2018-12-24T02:58:57.580Z,1005.92
2018-12-24T02:59:57.663Z,1005.97
2018-12-24T03:00:57.556Z,1005.93
2018-12-24T03:01:57.753Z,1006.00
2018-12-24T03:02:57.531Z,1006.01
2018-12-24T03:03:57.517Z,1006.04
2018-12-24T03:04:57.503Z,1006.02
2018-12-24T03:05:57.491Z,1006.06
2018-12-24T03:06:57.482Z,1006.08
2018-12-24T03:07:57.518Z,1006.10
2018-12-24T03:08:57.452Z,1006.10
2018-12-24T03:09:57.440Z,1006.14
2018-12-24T03:10:57.427Z,1006.15
2018-12-24T03:11:57.414Z,1006.17
2018-12-24T03:13:02.512Z,1006.17
2018-12-24T03:13:57.388Z,1006.17
2018-12-24T03:14:57.374Z,1006.19
2018-12-24T03:15:57.361Z,1006.18
2018-12-24T03:16:57.349Z,1006.22
2018-12-24T03:17:57.338Z,1006.22
2018-12-24T03:18:57.324Z,1006.20
2018-12-24T03:19:57.321Z,1006.24
2018-12-24T03:20:57.297Z,1006.25
2018-12-24T03:21:57.285Z,1006.24
2018-12-24T03:22:57.271Z,1006.24
2018-12-24T03:23:57.260Z,1006.33
2018-12-24T03:24:57.247Z,1006.35
2018-12-24T03:25:57.234Z,1006.35
2018-12-24T03:26:57.221Z,1006.37
2018-12-24T03:27:57.256Z,1006.35
2018-12-24T03:28:57.194Z,1006.36
2018-12-24T03:29:57.181Z,1006.34
2018-12-24T03:30:57.175Z,1006.38
2018-12-24T03:31:57.160Z,1006.39
2018-12-24T03:32:57.224Z,1006.42
2018-12-24T03:33:57.130Z,1006.44
2018-12-24T03:34:57.116Z,1006.47
2018-12-24T03:35:57.109Z,1006.48
2018-12-24T03:36:57.097Z,1006.50
2018-12-24T03:37:57.078Z,1006.49
2018-12-24T03:38:57.065Z,1006.53
2018-12-24T03:39:57.051Z,1006.54
2018-12-24T03:40:57.040Z,1006.57
2018-12-24T03:41:57.033Z,1006.58
2018-12-24T03:42:57.014Z,1006.58
2018-12-24T03:43:57.006Z,1006.59
2018-12-24T03:44:56.989Z,1006.62
2018-12-24T03:45:56.975Z,1006.64
2018-12-24T03:46:56.963Z,1006.66
2018-12-24T03:47:56.950Z,1006.66
2018-12-24T03:48:56.938Z,1006.69
2018-12-24T03:49:56.974Z,1006.63
2018-12-24T03:50:56.910Z,1006.68
2018-12-24T03:51:56.900Z,1006.74
2018-12-24T03:52:56.886Z,1006.74
2018-12-24T03:53:56.874Z,1006.78
2018-12-24T03:54:56.861Z,1006.81
2018-12-24T03:55:56.846Z,1006.82
2018-12-24T03:56:56.849Z,1006.88
2018-12-24T03:57:56.822Z,1006.89
2018-12-24T03:58:56.809Z,1006.90
2018-12-24T03:59:56.800Z,1006.95
2018-12-24T04:00:56.983Z,1006.95
2018-12-24T04:01:56.772Z,1006.95
2018-12-24T04:02:56.757Z,1006.96
2018-12-24T04:03:56.746Z,1006.98
2018-12-24T04:04:56.733Z,1007.03
2018-12-24T04:05:56.772Z,1007.01
2018-12-24T04:06:56.709Z,1007.07
2018-12-24T04:07:56.693Z,1007.07
2018-12-24T04:08:56.682Z,1007.11
2018-12-24T04:09:56.669Z,1007.12
2018-12-24T04:10:56.710Z,1007.13
2018-12-24T04:11:56.643Z,1007.18
2018-12-24T04:12:56.629Z,1007.20
2018-12-24T04:13:56.618Z,1007.22
2018-12-24T04:14:56.603Z,1007.24
2018-12-24T04:15:56.592Z,1007.26
2018-12-24T04:16:56.583Z,1007.26
2018-12-24T04:17:56.565Z,1007.24
2018-12-24T04:18:56.552Z,1007.30
2018-12-24T04:19:56.539Z,1007.36
2018-12-24T04:20:56.577Z,1007.32
2018-12-24T04:21:56.514Z,1007.35
2018-12-24T04:22:56.501Z,1007.39
2018-12-24T04:23:56.489Z,1007.37
2018-12-24T04:24:56.477Z,1007.37
2018-12-24T04:25:56.464Z,1007.38
2018-12-24T04:26:56.457Z,1007.40
2018-12-24T04:27:56.438Z,1007.39
2018-12-24T04:28:56.425Z,1007.42
2018-12-24T04:29:56.412Z,1007.41
2018-12-24T04:30:56.401Z,1007.42
2018-12-24T04:31:56.387Z,1007.49
2018-12-24T04:32:56.379Z,1007.50
2018-12-24T04:33:56.361Z,1007.56
2018-12-24T04:34:56.347Z,1007.53
2018-12-24T04:35:56.385Z,1007.53
2018-12-24T04:36:56.328Z,1007.60
2018-12-24T04:37:56.314Z,1007.61
2018-12-24T04:38:56.301Z,1007.62
2018-12-24T04:39:56.284Z,1007.60
2018-12-24T04:40:56.272Z,1007.63
2018-12-24T04:41:56.259Z,1007.66
2018-12-24T04:42:56.253Z,1007.63
2018-12-24T04:43:58.939Z,1007.66
2018-12-24T04:44:56.221Z,1007.71
2018-12-24T04:45:56.210Z,1007.75
2018-12-24T04:46:56.195Z,1007.80
2018-12-24T04:47:56.183Z,1007.84
2018-12-24T04:48:56.184Z,1007.84
2018-12-24T04:49:56.162Z,1007.83
2018-12-24T04:50:56.148Z,1007.89
2018-12-24T04:51:56.133Z,1007.88
2018-12-24T04:52:56.129Z,1007.92
2018-12-24T04:53:56.108Z,1007.94
2018-12-24T04:54:56.094Z,1008.01
2018-12-24T04:55:56.083Z,1008.01
2018-12-24T04:56:56.070Z,1007.99
2018-12-24T04:57:56.058Z,1008.02
2018-12-24T04:58:56.050Z,1008.06
2018-12-24T04:59:56.034Z,1008.08
2018-12-24T05:00:56.023Z,1008.08
2018-12-24T05:01:56.008Z,1008.13
2018-12-24T05:02:55.994Z,1008.13
2018-12-24T05:03:55.982Z,1008.14
2018-12-24T05:04:56.179Z,1008.22
2018-12-24T05:05:55.957Z,1008.13
2018-12-24T05:06:55.946Z,1008.18
2018-12-24T05:07:55.930Z,1008.26
2018-12-24T05:08:55.918Z,1008.28
2018-12-24T05:09:55.905Z,1008.27
2018-12-24T05:10:55.893Z,1008.33
2018-12-24T05:11:55.880Z,1008.23
2018-12-24T05:12:55.867Z,1008.32
2018-12-24T05:13:55.855Z,1008.35
2018-12-24T05:14:55.841Z,1008.34
2018-12-24T05:15:55.831Z,1008.39
2018-12-24T05:16:55.820Z,1008.46
2018-12-24T05:17:55.805Z,1008.45
2018-12-24T05:18:55.790Z,1008.47
2018-12-24T05:19:55.777Z,1008.52
2018-12-24T05:20:55.766Z,1008.59
2018-12-24T05:21:55.752Z,1008.59
2018-12-24T05:22:55.739Z,1008.59
2018-12-24T05:23:55.728Z,1008.64
2018-12-24T05:24:55.714Z,1008.66
2018-12-24T05:25:55.702Z,1008.68
2018-12-24T05:26:55.689Z,1008.72
2018-12-24T05:27:55.677Z,1008.76
2018-12-24T05:28:55.664Z,1008.76
2018-12-24T05:29:55.651Z,1008.80
2018-12-24T05:30:55.639Z,1008.81
2018-12-24T05:31:55.626Z,1008.89
2018-12-24T05:32:55.613Z,1008.87
2018-12-24T05:33:55.601Z,1008.90
2018-12-24T05:34:55.587Z,1008.92
2018-12-24T05:35:55.575Z,1008.91
2018-12-24T05:36:55.615Z,1008.97
2018-12-24T05:37:55.551Z,1008.97
2018-12-24T05:38:55.538Z,1009.00
2018-12-24T05:39:55.524Z,1009.07
2018-12-24T05:40:55.512Z,1009.12
2018-12-24T05:41:55.499Z,1009.13
2018-12-24T05:42:55.486Z,1009.15
2018-12-24T05:43:55.478Z,1009.15
2018-12-24T05:44:55.461Z,1009.18
2018-12-24T05:45:55.449Z,1009.18
2018-12-24T05:46:55.435Z,1009.18
2018-12-24T05:47:55.423Z,1009.21
2018-12-24T05:48:55.612Z,1009.19
2018-12-24T05:49:55.600Z,1009.28
2018-12-24T05:50:55.385Z,1009.30
2018-12-24T05:51:55.372Z,1009.36
2018-12-24T05:52:55.359Z,1009.37
2018-12-24T05:53:55.347Z,1009.45
2018-12-24T05:54:55.333Z,1009.48
2018-12-24T05:55:55.320Z,1009.46
2018-12-24T05:56:55.308Z,1009.47
2018-12-24T05:57:55.295Z,1009.43
2018-12-24T05:58:55.282Z,1009.51
2018-12-24T05:59:55.269Z,1009.51
2018-12-24T06:00:55.256Z,1009.58
2018-12-24T06:01:55.244Z,1009.55
2018-12-24T06:02:55.231Z,1009.53
2018-12-24T06:03:55.218Z,1009.61
2018-12-24T06:04:55.205Z,1009.64
2018-12-24T06:05:55.193Z,1009.67
2018-12-24T06:06:55.181Z,1009.65
2018-12-24T06:07:55.167Z,1009.72
2018-12-24T06:08:55.155Z,1009.75
2018-12-24T06:09:55.142Z,1009.76
2018-12-24T06:10:55.128Z,1009.81
2018-12-24T06:11:56.249Z,1009.86
2018-12-24T06:12:55.109Z,1009.86
2018-12-24T06:13:58.039Z,1009.87
2018-12-24T06:14:55.077Z,1009.92
2018-12-24T06:15:55.064Z,1009.96
2018-12-24T06:16:55.052Z,1009.97
2018-12-24T06:17:55.042Z,1009.99
2018-12-24T06:18:55.026Z,1009.98
2018-12-24T06:19:55.013Z,1010.06
2018-12-24T06:20:55.001Z,1010.05
2018-12-24T06:21:55.190Z,1010.08
2018-12-24T06:22:54.977Z,1010.11
2018-12-24T06:23:54.963Z,1010.16
2018-12-24T06:24:54.951Z,1010.20
2018-12-24T06:25:55.823Z,1010.18
2018-12-24T06:26:54.924Z,1010.20
2018-12-24T06:27:54.912Z,1010.25
2018-12-24T06:28:54.903Z,1010.28
2018-12-24T06:29:54.887Z,1010.28
2018-12-24T06:30:54.874Z,1010.31
2018-12-24T06:31:54.862Z,1010.31
2018-12-24T06:32:54.849Z,1010.35
2018-12-24T06:33:54.837Z,1010.34
2018-12-24T06:34:54.823Z,1010.36
2018-12-24T06:35:54.811Z,1010.40
2018-12-24T06:36:54.798Z,1010.42
2018-12-24T06:37:54.786Z,1010.44
2018-12-24T06:38:54.823Z,1010.47
2018-12-24T06:39:54.760Z,1010.47
2018-12-24T06:40:54.748Z,1010.46
2018-12-24T06:41:54.736Z,1010.45
2018-12-24T06:42:54.729Z,1010.50
2018-12-24T06:43:54.710Z,1010.48
2018-12-24T06:44:54.702Z,1010.52
2018-12-24T06:45:54.685Z,1010.54
2018-12-24T06:46:54.672Z,1010.55
2018-12-24T06:47:54.660Z,1010.56
2018-12-24T06:48:54.647Z,1010.58
2018-12-24T06:49:54.635Z,1010.59
2018-12-24T06:50:54.621Z,1010.59
2018-12-24T06:51:54.609Z,1010.63
2018-12-24T06:52:54.597Z,1010.64
2018-12-24T06:53:54.584Z,1010.66
2018-12-24T06:54:54.572Z,1010.69
2018-12-24T06:55:54.561Z,1010.69
2018-12-24T06:56:54.548Z,1010.72
2018-12-24T06:57:54.535Z,1010.72
2018-12-24T06:58:54.520Z,1010.72
2018-12-24T06:59:54.508Z,1010.78
2018-12-24T07:00:54.496Z,1010.75
2018-12-24T07:01:54.483Z,1010.73
2018-12-24T07:02:54.470Z,1010.77
2018-12-24T07:03:54.459Z,1010.79
2018-12-24T07:04:54.445Z,1010.77
2018-12-24T07:05:54.432Z,1010.80
2018-12-24T07:06:54.419Z,1010.82
2018-12-24T07:07:54.407Z,1010.83
2018-12-24T07:08:54.394Z,1010.86
2018-12-24T07:09:54.382Z,1010.83
2018-12-24T07:10:54.369Z,1010.88
2018-12-24T07:11:54.357Z,1010.89
2018-12-24T07:12:54.349Z,1010.90
2018-12-24T07:13:54.332Z,1010.91
2018-12-24T07:14:54.318Z,1010.93
2018-12-24T07:15:54.306Z,1010.98
2018-12-24T07:16:54.293Z,1011.03
2018-12-24T07:17:54.281Z,1011.03
2018-12-24T07:18:54.271Z,1011.04
2018-12-24T07:19:54.255Z,1011.09
2018-12-24T07:20:54.243Z,1011.06
2018-12-24T07:21:54.231Z,1011.12
2018-12-24T07:22:54.217Z,1011.13
2018-12-24T07:23:54.204Z,1011.16
2018-12-24T07:24:54.192Z,1011.19
2018-12-24T07:25:54.179Z,1011.19
2018-12-24T07:26:54.166Z,1011.16
2018-12-24T07:27:54.154Z,1011.17
2018-12-24T07:28:59.034Z,1011.22
2018-12-24T07:29:54.131Z,1011.24
2018-12-24T07:30:54.115Z,1011.23
2018-12-24T07:31:54.103Z,1011.26
2018-12-24T07:32:54.091Z,1011.24
2018-12-24T07:33:54.086Z,1011.28
2018-12-24T07:34:54.267Z,1011.31
2018-12-24T07:35:54.052Z,1011.32
2018-12-24T07:36:54.040Z,1011.38
2018-12-24T07:37:54.027Z,1011.31
2018-12-24T07:38:54.014Z,1011.38
2018-12-24T07:39:54.007Z,1011.38
2018-12-24T07:40:53.991Z,1011.41
2018-12-24T07:41:53.977Z,1011.42
2018-12-24T07:42:53.966Z,1011.44
2018-12-24T07:43:53.951Z,1011.41
2018-12-24T07:44:53.938Z,1011.42
2018-12-24T07:45:53.930Z,1011.42
2018-12-24T07:46:53.913Z,1011.43
2018-12-24T07:47:53.900Z,1011.44
2018-12-24T07:48:53.888Z,1011.47
2018-12-24T07:49:53.876Z,1011.46
2018-12-24T07:50:53.863Z,1011.52
2018-12-24T07:51:53.858Z,1011.51
2018-12-24T07:52:53.838Z,1011.50
2018-12-24T07:53:53.827Z,1011.52
2018-12-24T07:54:53.813Z,1011.54
2018-12-24T07:55:54.005Z,1011.55
2018-12-24T07:56:53.798Z,1011.55
2018-12-24T07:57:53.777Z,1011.56
2018-12-24T07:58:53.763Z,1011.56
2018-12-24T07:59:53.757Z,1011.56
2018-12-24T08:00:53.741Z,1011.59
2018-12-24T08:01:53.727Z,1011.62
2018-12-24T08:02:53.718Z,1011.67
2018-12-24T08:03:53.706Z,1011.71
2018-12-24T08:04:53.689Z,1011.76
2018-12-24T08:05:53.678Z,1011.78
2018-12-24T08:06:53.664Z,1011.80
2018-12-24T08:07:53.652Z,1011.79
2018-12-24T08:08:53.640Z,1011.82
2018-12-24T08:09:53.627Z,1011.84
2018-12-24T08:10:53.615Z,1011.82
2018-12-24T08:11:53.606Z,1011.85
2018-12-24T08:12:53.591Z,1011.82
2018-12-24T08:13:53.629Z,1011.82
2018-12-24T08:14:53.569Z,1011.79
2018-12-24T08:15:53.559Z,1011.83
2018-12-24T08:16:53.541Z,1011.85
2018-12-24T08:17:53.532Z,1011.88
2018-12-24T08:18:53.515Z,1011.89
2018-12-24T08:19:53.503Z,1011.89
2018-12-24T08:20:53.492Z,1011.93
2018-12-24T08:21:53.480Z,1012.00
2018-12-24T08:22:53.466Z,1011.98
2018-12-24T08:23:53.454Z,1012.01
2018-12-24T08:24:53.443Z,1012.04
2018-12-24T08:25:53.431Z,1012.07
2018-12-24T08:26:53.774Z,1012.05
2018-12-24T08:27:53.405Z,1012.09
2018-12-24T08:28:53.695Z,1012.10
2018-12-24T08:29:53.384Z,1012.13
2018-12-24T08:30:53.371Z,1012.14
2018-12-24T08:31:53.355Z,1012.15
2018-12-24T08:32:53.343Z,1012.22
2018-12-24T08:33:53.333Z,1012.17
2018-12-24T08:34:53.319Z,1012.23
2018-12-24T08:35:53.310Z,1012.29
2018-12-24T08:36:53.293Z,1012.30
2018-12-24T08:37:53.285Z,1012.37
2018-12-24T08:38:53.269Z,1012.39
2018-12-24T08:39:53.264Z,1012.40
2018-12-24T08:40:53.244Z,1012.44
2018-12-24T08:41:53.231Z,1012.45
2018-12-24T08:42:53.223Z,1012.53
2018-12-24T08:43:53.207Z,1012.50
2018-12-24T08:44:53.195Z,1012.52
2018-12-24T08:45:53.182Z,1012.57
2018-12-24T08:46:53.172Z,1012.56
2018-12-24T08:47:53.156Z,1012.61
2018-12-24T08:48:53.195Z,1012.65
2018-12-24T08:49:53.131Z,1012.68
2018-12-24T08:50:53.118Z,1012.72
2018-12-24T08:51:53.108Z,1012.72
2018-12-24T08:52:53.094Z,1012.75
2018-12-24T08:53:53.082Z,1012.80
2018-12-24T08:54:53.068Z,1012.84
2018-12-24T08:55:53.060Z,1012.90
2018-12-24T08:56:53.044Z,1012.86
2018-12-24T08:57:53.033Z,1012.94
2018-12-24T08:58:53.024Z,1012.90
2018-12-24T08:59:53.008Z,1012.95
2018-12-24T09:00:52.995Z,1012.96
2018-12-24T09:01:52.983Z,1012.99
2018-12-24T09:02:52.970Z,1013.01
2018-12-24T09:03:52.957Z,1013.08
2018-12-24T09:04:52.950Z,1013.11
2018-12-24T09:05:52.933Z,1013.07
2018-12-24T09:06:52.920Z,1013.10
2018-12-24T09:07:52.908Z,1013.09
2018-12-24T09:08:52.900Z,1013.15
2018-12-24T09:09:52.884Z,1013.12
2018-12-24T09:10:52.871Z,1013.14
2018-12-24T09:11:52.860Z,1013.14
2018-12-24T09:12:52.847Z,1013.19
2018-12-24T09:13:52.835Z,1013.23
2018-12-24T09:14:53.025Z,1013.24
2018-12-24T09:15:52.810Z,1013.26
2018-12-24T09:16:52.798Z,1013.34
2018-12-24T09:17:52.786Z,1013.31
2018-12-24T09:18:52.779Z,1013.35
2018-12-24T09:19:52.765Z,1013.38
2018-12-24T09:20:53.064Z,1013.38
2018-12-24T09:21:52.738Z,1013.39
2018-12-24T09:22:52.725Z,1013.46
2018-12-24T09:23:52.717Z,1013.46
2018-12-24T09:24:52.700Z,1013.51
2018-12-24T09:25:52.687Z,1013.54
2018-12-24T09:26:52.675Z,1013.59
2018-12-24T09:27:52.664Z,1013.63
2018-12-24T09:28:52.659Z,1013.70
2018-12-24T09:29:52.841Z,1013.72
2018-12-24T09:30:52.628Z,1013.75
2018-12-24T09:31:52.620Z,1013.78
2018-12-24T09:32:52.602Z,1013.77
2018-12-24T09:33:52.602Z,1013.77
2018-12-24T09:34:52.576Z,1013.81
2018-12-24T09:35:53.673Z,1013.85
2018-12-24T09:36:52.552Z,1013.85
2018-12-24T09:37:52.542Z,1013.83
2018-12-24T09:38:52.528Z,1013.86
2018-12-24T09:39:52.515Z,1013.87
2018-12-24T09:40:52.509Z,1013.90
2018-12-24T09:41:52.492Z,1013.89
2018-12-24T09:42:52.484Z,1013.93
2018-12-24T09:43:52.466Z,1013.92
2018-12-24T09:44:58.971Z,1013.91
2018-12-24T09:45:52.443Z,1013.97
2018-12-24T09:46:52.429Z,1013.98
2018-12-24T09:47:52.418Z,1014.03
2018-12-24T09:48:52.406Z,1014.04
2018-12-24T09:49:52.394Z,1014.05
2018-12-24T09:50:52.382Z,1014.06
2018-12-24T09:51:52.378Z,1014.07
2018-12-24T09:52:52.359Z,1014.10
2018-12-24T09:53:52.350Z,1014.15
2018-12-24T09:54:52.335Z,1014.18
2018-12-24T09:55:52.377Z,1014.16
2018-12-24T09:56:52.313Z,1014.18
2018-12-24T09:57:52.298Z,1014.19
2018-12-24T09:58:52.289Z,1014.18
2018-12-24T09:59:52.275Z,1014.18
2018-12-24T10:00:52.265Z,1014.18
2018-12-24T10:01:52.256Z,1014.20
2018-12-24T10:02:52.241Z,1014.18
2018-12-24T10:03:52.229Z,1014.11
2018-12-24T10:04:52.242Z,1014.11
2018-12-24T10:05:52.204Z,1014.13
2018-12-24T10:06:52.190Z,1014.17
2018-12-24T10:07:52.179Z,1014.19
2018-12-24T10:08:52.171Z,1014.16
2018-12-24T10:09:52.155Z,1014.18
2018-12-24T10:10:52.146Z,1014.21
2018-12-24T10:11:52.137Z,1014.20
2018-12-24T10:12:52.120Z,1014.25
2018-12-24T10:13:52.108Z,1014.27
2018-12-24T10:14:52.099Z,1014.24
2018-12-24T10:15:52.089Z,1014.27
2018-12-24T10:16:52.073Z,1014.29
2018-12-24T10:17:52.065Z,1014.29
2018-12-24T10:18:52.050Z,1014.32
2018-12-24T10:19:52.040Z,1014.29
2018-12-24T10:20:52.027Z,1014.33
2018-12-24T10:21:52.015Z,1014.34
2018-12-24T10:22:52.004Z,1014.34
2018-12-24T10:23:51.995Z,1014.34
2018-12-24T10:24:51.981Z,1014.31
2018-12-24T10:25:51.970Z,1014.32
2018-12-24T10:26:52.006Z,1014.37
2018-12-24T10:27:51.945Z,1014.35
2018-12-24T10:28:51.937Z,1014.35
2018-12-24T10:29:51.924Z,1014.37
2018-12-24T10:30:51.913Z,1014.39
2018-12-24T10:31:51.898Z,1014.40
2018-12-24T10:32:51.894Z,1014.43
2018-12-24T10:33:51.881Z,1014.41
2018-12-24T10:34:51.867Z,1014.44
2018-12-24T10:35:51.852Z,1014.45
2018-12-24T10:36:51.844Z,1014.45
2018-12-24T10:37:51.835Z,1014.42
2018-12-24T10:38:52.028Z,1014.48
2018-12-24T10:39:51.808Z,1014.48
2018-12-24T10:40:51.801Z,1014.45
2018-12-24T10:41:51.834Z,1014.51
2018-12-24T10:42:51.774Z,1014.50
2018-12-24T10:43:51.758Z,1014.52
2018-12-24T10:44:51.747Z,1014.52
2018-12-24T10:45:51.741Z,1014.52
2018-12-24T10:46:51.724Z,1014.53
2018-12-24T10:47:51.715Z,1014.51
2018-12-24T10:48:51.700Z,1014.51
2018-12-24T10:49:51.689Z,1014.54
2018-12-24T10:50:51.675Z,1014.48
2018-12-24T10:51:51.668Z,1014.51
2018-12-24T10:52:51.653Z,1014.54
2018-12-24T10:53:51.642Z,1014.51
2018-12-24T10:54:51.629Z,1014.55
2018-12-24T10:55:51.630Z,1014.56
2018-12-24T10:56:51.609Z,1014.59
2018-12-24T10:57:51.596Z,1014.58
2018-12-24T10:58:51.582Z,1014.58
2018-12-24T10:59:51.571Z,1014.60
2018-12-24T11:00:51.560Z,1014.61
2018-12-24T11:01:51.550Z,1014.63
2018-12-24T11:02:51.536Z,1014.62
2018-12-24T11:03:51.524Z,1014.64
2018-12-24T11:04:51.520Z,1014.64
2018-12-24T11:05:51.502Z,1014.63
2018-12-24T11:06:51.497Z,1014.65
2018-12-24T11:07:51.477Z,1014.64
2018-12-24T11:08:51.467Z,1014.60
2018-12-24T11:09:51.457Z,1014.59
2018-12-24T11:10:51.445Z,1014.59
2018-12-24T11:11:51.434Z,1014.61
2018-12-24T11:12:51.425Z,1014.59
2018-12-24T11:13:51.408Z,1014.59
2018-12-24T11:14:51.404Z,1014.63
2018-12-24T11:15:51.387Z,1014.62
2018-12-24T11:16:51.380Z,1014.57
2018-12-24T11:17:51.364Z,1014.59
2018-12-24T11:18:51.350Z,1014.57
2018-12-24T11:19:51.345Z,1014.54
2018-12-24T11:20:51.330Z,1014.49
2018-12-24T11:21:51.318Z,1014.50
2018-12-24T11:22:51.508Z,1014.46
2018-12-24T11:23:51.293Z,1014.43
2018-12-24T11:24:51.282Z,1014.40
2018-12-24T11:25:51.278Z,1014.43
2018-12-24T11:26:51.261Z,1014.42
2018-12-24T11:27:51.248Z,1014.45
2018-12-24T11:28:51.235Z,1014.49
2018-12-24T11:29:51.229Z,1014.52
2018-12-24T11:30:51.213Z,1014.50
2018-12-24T11:31:51.201Z,1014.55
2018-12-24T11:32:51.190Z,1014.58
2018-12-24T11:33:51.183Z,1014.62
2018-12-24T11:34:51.169Z,1014.62
2018-12-24T11:35:51.156Z,1014.58
2018-12-24T11:36:51.145Z,1014.60
2018-12-24T11:37:51.135Z,1014.54
2018-12-24T11:38:51.124Z,1014.57
2018-12-24T11:39:51.114Z,1014.60
2018-12-24T11:40:51.100Z,1014.59
2018-12-24T11:41:51.142Z,1014.57
2018-12-24T11:42:51.077Z,1014.60
2018-12-24T11:43:51.066Z,1014.59
2018-12-24T11:44:51.056Z,1014.61
2018-12-24T11:45:51.050Z,1014.62
2018-12-24T11:46:51.033Z,1014.60
2018-12-24T11:47:51.024Z,1014.64
2018-12-24T11:48:51.012Z,1014.63
2018-12-24T11:49:51.004Z,1014.64
2018-12-24T11:50:50.990Z,1014.59
2018-12-24T11:51:50.980Z,1014.66
2018-12-24T11:52:50.969Z,1014.68
2018-12-24T11:53:50.959Z,1014.66
2018-12-24T11:54:50.951Z,1014.66
2018-12-24T11:55:50.936Z,1014.66
2018-12-24T11:56:50.928Z,1014.64
2018-12-24T11:57:50.915Z,1014.64
2018-12-24T11:58:50.903Z,1014.66
2018-12-24T11:59:50.892Z,1014.64
2018-12-24T12:00:50.883Z,1014.67
2018-12-24T12:01:50.877Z,1014.66
2018-12-24T12:02:50.861Z,1014.66
2018-12-24T12:03:50.859Z,1014.64
2018-12-24T12:04:50.840Z,1014.68
2018-12-24T12:05:50.826Z,1014.69